Time;durP1;ratioP1;P1;durP2;ratioP2;P2;SDS_P1;SDS_P2;PMS_P1;PMS_P2;Temp;Humidity;BMP_temperature;BMP_pressure;BME280_temperature;BME280_humidity;BME280_pressure;Samples;Min_cycle;Max_cycle;Signal;HPM_P1;HPM_P2
2023/06/27 00:02:58;;;;;;;;;;;17.30;99.90;;;;;;8440764;27;20372;-73
2023/06/27 00:07:00;;;;;;;;;;;17.20;99.90;;;;;;8448342;27;19924;-74
2023/06/27 00:11:02;;;;;;;;;;;17.20;99.90;;;;;;8433423;28;19976;-73
2023/06/27 00:15:07;;;;;;;;;;;17.20;99.20;;;;;;8453367;27;19965;-74
2023/06/27 00:19:08;;;;;;;;;;;17.20;99.40;;;;;;8446522;27;19998;-74
2023/06/27 00:23:16;;;;;;;;;;;17.20;99.60;;;;;;8451193;28;19924;-73
2023/06/27 00:27:18;;;;;;;;;;;17.20;99.90;;;;;;8454263;28;19924;-74
2023/06/27 00:31:20;;;;;;;;;;;17.20;99.90;;;;;;8446493;28;19981;-73
2023/06/27 00:35:22;;;;;;;;;;;17.20;99.30;;;;;;8449216;28;19931;-74
2023/06/27 00:39:24;;;;;;;;;;;17.20;99.90;;;;;;8450663;28;20029;-74
2023/06/27 00:43:28;;;;;;;;;;;17.20;99.60;;;;;;8443666;27;19924;-74
2023/06/27 00:47:30;;;;;;;;;;;17.30;99.90;;;;;;8463938;27;19962;-74
2023/06/27 00:51:32;;;;;;;;;;;17.30;99.90;;;;;;8455518;27;19993;-74
2023/06/27 01:01:12;;;;;;;;;;;17.30;99.90;;;;;;8430922;27;19935;-74
2023/06/27 01:05:15;;;;;;;;;;;17.30;99.90;;;;;;8440307;28;19924;-74
2023/06/27 01:09:26;;;;;;;;;;;17.30;99.90;;;;;;8438625;27;19932;-73
2023/06/27 01:13:36;;;;;;;;;;;17.30;99.90;;;;;;8445109;27;19983;-74
2023/06/27 01:17:38;;;;;;;;;;;17.30;99.90;;;;;;8445594;27;19936;-73
2023/06/27 01:21:40;;;;;;;;;;;17.20;99.90;;;;;;8451834;27;19930;-74
2023/06/27 01:25:42;;;;;;;;;;;17.20;99.90;;;;;;8439507;28;19946;-74
2023/06/27 01:29:44;;;;;;;;;;;17.20;99.90;;;;;;8446738;27;19923;-73
2023/06/27 01:33:48;;;;;;;;;;;17.20;99.80;;;;;;8463822;27;19924;-74
2023/06/27 01:37:52;;;;;;;;;;;17.10;99.90;;;;;;8452357;27;19928;-74
2023/06/27 01:41:56;;;;;;;;;;;17.10;99.90;;;;;;8445362;28;19932;-73
2023/06/27 01:51:07;;;;;;;;;;;17.00;99.90;;;;;;8451347;27;20341;-73
2023/06/27 01:55:09;;;;;;;;;;;17.00;99.90;;;;;;8449634;27;19924;-73
2023/06/27 01:59:10;;;;;;;;;;;16.90;99.90;;;;;;8434058;28;19924;-73
2023/06/27 02:03:12;;;;;;;;;;;16.90;99.90;;;;;;8469435;27;20249;-73
2023/06/27 02:07:14;;;;;;;;;;;16.90;99.90;;;;;;8454187;27;19962;-74
2023/06/27 02:11:15;;;;;;;;;;;16.80;99.90;;;;;;8441183;28;19951;-73
2023/06/27 02:15:17;;;;;;;;;;;16.80;99.90;;;;;;8435406;28;19992;-74
2023/06/27 02:19:19;;;;;;;;;;;16.70;99.90;;;;;;8443851;28;20018;-74
2023/06/27 02:23:20;;;;;;;;;;;16.70;99.90;;;;;;8442071;28;19924;-73
2023/06/27 02:27:22;;;;;;;;;;;16.60;99.90;;;;;;8427827;28;21968;-73
2023/06/27 02:31:24;;;;;;;;;;;16.60;99.90;;;;;;8444093;28;19971;-73
2023/06/27 02:35:26;;;;;;;;;;;16.50;99.90;;;;;;8445296;28;19954;-74
2023/06/27 02:39:27;;;;;;;;;;;16.50;99.90;;;;;;8449251;28;20010;-74
2023/06/27 02:43:29;;;;;;;;;;;16.50;99.90;;;;;;8443946;28;19928;-74
2023/06/27 02:47:31;;;;;;;;;;;16.40;99.90;;;;;;8460479;27;19927;-74
2023/06/27 02:51:33;;;;;;;;;;;16.40;99.90;;;;;;8442803;28;19943;-73
2023/06/27 02:55:35;;;;;;;;;;;16.40;99.90;;;;;;8435282;28;19970;-73
2023/06/27 02:59:37;;;;;;;;;;;16.30;99.90;;;;;;8443125;28;20579;-74
2023/06/27 03:03:38;;;;;;;;;;;16.30;99.90;;;;;;8444407;28;20618;-73
2023/06/27 03:07:40;;;;;;;;;;;16.30;99.90;;;;;;8459793;27;19936;-74
2023/06/27 03:11:42;;;;;;;;;;;16.30;99.90;;;;;;8450483;27;19928;-74
2023/06/27 03:15:43;;;;;;;;;;;16.30;99.90;;;;;;8438324;27;19924;-73
2023/06/27 03:19:45;;;;;;;;;;;16.30;99.90;;;;;;8449586;28;19924;-73
2023/06/27 03:23:47;;;;;;;;;;;16.20;99.90;;;;;;8456760;27;20340;-74
2023/06/27 03:27:48;;;;;;;;;;;16.20;99.90;;;;;;8457207;27;19928;-73
2023/06/27 03:31:50;;;;;;;;;;;16.20;99.90;;;;;;8431220;28;19923;-74
2023/06/27 03:35:52;;;;;;;;;;;16.20;99.90;;;;;;8453603;27;20379;-74
2023/06/27 03:39:55;;;;;;;;;;;16.20;99.90;;;;;;8458484;27;19923;-74
2023/06/27 03:43:57;;;;;;;;;;;16.20;99.90;;;;;;8452463;27;19928;-74
2023/06/27 03:47:59;;;;;;;;;;;16.20;99.90;;;;;;8442402;27;20413;-74
2023/06/27 03:52:01;;;;;;;;;;;16.20;99.90;;;;;;8441355;27;19970;-74
2023/06/27 03:56:03;;;;;;;;;;;16.20;99.90;;;;;;8449744;27;19927;-74
2023/06/27 04:00:07;;;;;;;;;;;16.20;99.90;;;;;;8454130;27;19972;-74
2023/06/27 04:04:09;;;;;;;;;;;16.20;99.90;;;;;;8454383;27;19928;-73
2023/06/27 04:08:14;;;;;;;;;;;16.10;99.90;;;;;;8445734;27;19934;-74
2023/06/27 04:12:16;;;;;;;;;;;16.20;99.90;;;;;;8451642;27;19928;-74
2023/06/27 04:16:18;;;;;;;;;;;16.30;99.90;;;;;;8458216;27;20317;-74
2023/06/27 04:20:19;;;;;;;;;;;16.30;99.90;;;;;;8453892;28;20333;-74
2023/06/27 04:24:21;;;;;;;;;;;16.40;99.90;;;;;;8432728;28;19924;-73
2023/06/27 04:28:23;;;;;;;;;;;16.40;99.90;;;;;;8449237;27;20371;-74
2023/06/27 04:32:24;;;;;;;;;;;16.40;99.90;;;;;;8451292;27;19927;-73
2023/06/27 04:36:27;;;;;;;;;;;16.40;99.90;;;;;;8432575;28;20331;-73
2023/06/27 04:40:28;;;;;;;;;;;16.40;99.90;;;;;;8457060;27;20378;-73
2023/06/27 04:44:30;;;;;;;;;;;16.40;99.90;;;;;;8451036;27;20275;-74
2023/06/27 04:48:32;;;;;;;;;;;16.40;99.90;;;;;;8449205;27;19924;-74
2023/06/27 04:52:33;;;;;;;;;;;16.40;99.90;;;;;;8464242;27;19927;-74
2023/06/27 04:56:35;;;;;;;;;;;16.50;99.90;;;;;;8460673;28;19947;-73
2023/06/27 05:00:37;;;;;;;;;;;16.50;99.90;;;;;;8456483;28;19954;-73
2023/06/27 05:09:42;;;;;;;;;;;16.50;99.90;;;;;;8448194;27;19918;-73
2023/06/27 05:13:44;;;;;;;;;;;16.60;99.90;;;;;;8446348;28;19931;-73
2023/06/27 05:17:52;;;;;;;;;;;16.60;99.90;;;;;;8442872;27;19935;-74
2023/06/27 05:21:54;;;;;;;;;;;16.60;99.90;;;;;;8438147;27;19932;-73
2023/06/27 05:25:56;;;;;;;;;;;16.70;99.90;;;;;;8450485;27;19924;-73
2023/06/27 05:29:57;;;;;;;;;;;16.80;99.90;;;;;;8452139;28;19923;-74
2023/06/27 05:33:59;;;;;;;;;;;16.80;99.90;;;;;;8427156;27;20326;-73
2023/06/27 05:38:01;;;;;;;;;;;17.00;99.90;;;;;;8458733;27;19931;-73
2023/06/27 05:42:02;;;;;;;;;;;17.10;99.90;;;;;;8451060;28;19965;-74
2023/06/27 05:46:04;;;;;;;;;;;17.10;99.90;;;;;;8453977;28;20213;-74
2023/06/27 05:50:06;;;;;;;;;;;17.20;99.90;;;;;;8458215;27;19991;-74
2023/06/27 05:54:08;;;;;;;;;;;17.30;99.90;;;;;;8454387;28;19939;-74
2023/06/27 05:58:09;;;;;;;;;;;17.50;99.90;;;;;;8452668;28;19931;-74
2023/06/27 06:02:11;;;;;;;;;;;17.60;99.90;;;;;;8454577;28;19931;-74
2023/06/27 06:06:13;;;;;;;;;;;17.80;99.90;;;;;;8457541;28;19923;-74
2023/06/27 06:10:14;;;;;;;;;;;17.90;99.90;;;;;;8452741;28;19931;-74
2023/06/27 06:14:16;;;;;;;;;;;18.00;99.90;;;;;;8446514;28;20364;-74
2023/06/27 06:18:18;;;;;;;;;;;18.20;99.90;;;;;;8455883;28;20351;-74
2023/06/27 06:22:19;;;;;;;;;;;18.30;99.90;;;;;;8447774;28;19927;-74
2023/06/27 06:26:21;;;;;;;;;;;18.40;99.90;;;;;;8449163;28;19924;-74
2023/06/27 06:30:23;;;;;;;;;;;18.50;99.90;;;;;;8455840;28;19924;-73
2023/06/27 06:34:24;;;;;;;;;;;18.60;99.90;;;;;;8454382;28;19927;-74
2023/06/27 06:38:26;;;;;;;;;;;18.70;99.90;;;;;;8454417;28;19931;-73
2023/06/27 06:42:28;;;;;;;;;;;18.90;99.90;;;;;;8449804;28;19928;-73
2023/06/27 06:51:41;;;;;;;;;;;19.00;99.90;;;;;;8462135;28;19918;-74
2023/06/27 06:55:43;;;;;;;;;;;19.10;99.90;;;;;;8456295;28;20375;-73
2023/06/27 06:59:45;;;;;;;;;;;19.20;99.90;;;;;;8457964;28;20376;-74
2023/06/27 07:03:47;;;;;;;;;;;19.30;99.90;;;;;;8441714;28;20391;-74
2023/06/27 07:07:49;;;;;;;;;;;19.40;99.90;;;;;;8456974;28;19932;-75
2023/06/27 07:11:51;;;;;;;;;;;19.50;99.90;;;;;;8458758;28;20375;-74
2023/06/27 07:15:53;;;;;;;;;;;19.60;99.90;;;;;;8461101;28;20367;-74
2023/06/27 07:24:58;;;;;;;;;;;19.70;99.90;;;;;;8453960;28;20286;-74
2023/06/27 07:29:01;;;;;;;;;;;19.70;99.90;;;;;;8464928;28;19935;-74
2023/06/27 07:33:02;;;;;;;;;;;19.60;99.90;;;;;;8457145;28;19931;-74
2023/06/27 07:37:05;;;;;;;;;;;19.80;99.90;;;;;;8459669;28;19928;-73
2023/06/27 07:41:07;;;;;;;;;;;19.80;99.90;;;;;;8457201;28;20359;-74
2023/06/27 07:45:09;;;;;;;;;;;19.90;99.90;;;;;;8458935;28;20380;-74
2023/06/27 08:04:34;;;;;;;;;;;20.20;99.90;;;;;;8449233;28;20400;-74
2023/06/27 08:08:36;;;;;;;;;;;20.30;99.90;;;;;;8453366;27;19973;-73
2023/06/27 08:27:49;;;;;;;;;;;20.20;99.90;;;;;;8430983;28;20433;-74
2023/06/27 08:31:54;;;;;;;;;;;20.20;99.90;;;;;;8434055;28;19931;-74
2023/06/27 08:35:55;;;;;;;;;;;20.20;99.90;;;;;;8429746;28;19928;-74
2023/06/27 08:39:57;;;;;;;;;;;20.20;99.90;;;;;;8428612;28;19931;-75
2023/06/27 08:43:59;;;;;;;;;;;20.20;99.90;;;;;;8452513;27;19931;-74
2023/06/27 08:48:01;;;;;;;;;;;20.30;99.90;;;;;;8431353;28;19928;-74
2023/06/27 08:52:04;;;;;;;;;;;20.30;99.90;;;;;;8427128;28;19935;-74
2023/06/27 08:56:06;;;;;;;;;;;20.30;99.90;;;;;;8448542;27;19928;-73
2023/06/27 09:00:12;;;;;;;;;;;20.30;99.90;;;;;;8428148;28;19932;-74
2023/06/27 09:04:14;;;;;;;;;;;20.30;99.90;;;;;;8428080;28;19924;-74
2023/06/27 09:08:17;;;;;;;;;;;20.30;99.90;;;;;;8429564;28;19924;-74
2023/06/27 09:12:19;;;;;;;;;;;20.30;99.90;;;;;;8429145;28;19977;-74
2023/06/27 09:16:21;;;;;;;;;;;20.30;99.90;;;;;;8427459;28;20440;-74
2023/06/27 09:20:23;;;;;;;;;;;20.40;99.90;;;;;;8442743;27;19924;-74
2023/06/27 09:24:25;;;;;;;;;;;20.40;99.90;;;;;;8433009;28;19997;-73
2023/06/27 09:28:27;;;;;;;;;;;20.40;99.90;;;;;;8427529;28;19931;-74
2023/06/27 09:32:28;;;;;;;;;;;20.40;99.90;;;;;;8433329;28;19931;-74
2023/06/27 09:36:31;;;;;;;;;;;20.40;99.90;;;;;;8437024;28;19932;-75
2023/06/27 09:40:36;;;;;;;;;;;20.40;99.90;;;;;;8428534;28;19977;-73
2023/06/27 09:54:47;;;;;;;;;;;20.30;99.90;;;;;;8396465;28;19927;-73
2023/06/27 10:03:52;;;;;;;;;;;20.30;99.90;;;;;;8391402;28;19923;-73
2023/06/27 10:23:05;;;;;;;;;;;20.50;99.90;;;;;;8391591;28;20016;-74
2023/06/27 10:27:07;;;;;;;;;;;20.60;99.90;;;;;;8395702;28;19932;-75
2023/06/27 10:31:09;;;;;;;;;;;20.70;99.90;;;;;;8392608;28;20318;-73
2023/06/27 10:35:12;;;;;;;;;;;20.70;99.90;;;;;;8426289;28;19932;-74
2023/06/27 10:39:44;;;;;;;;;;;20.70;99.90;;;;;;8426504;28;20435;-73
2023/06/27 10:43:46;;;;;;;;;;;20.80;99.90;;;;;;8392098;28;19932;-74
2023/06/27 10:47:47;;;;;;;;;;;20.80;99.90;;;;;;8422191;28;19931;-74
2023/06/27 10:51:51;;;;;;;;;;;20.80;99.90;;;;;;8397272;28;20007;-74
2023/06/27 10:55:55;;;;;;;;;;;20.90;99.90;;;;;;8392486;28;19928;-74
2023/06/27 11:00:10;;;;;;;;;;;21.00;99.90;;;;;;8396417;28;19975;-73
2023/06/27 11:04:15;;;;;;;;;;;21.00;99.00;;;;;;8393441;28;20350;-73
2023/06/27 11:08:18;;;;;;;;;;;21.10;99.00;;;;;;8394404;28;19947;-73
2023/06/27 11:22:27;;;;;;;;;;;21.10;98.00;;;;;;8391475;28;19997;-73
2023/06/27 11:26:29;;;;;;;;;;;21.20;97.70;;;;;;8434516;27;19931;-73
2023/06/27 11:30:33;;;;;;;;;;;21.20;97.90;;;;;;8395999;28;19939;-74
2023/06/27 11:34:35;;;;;;;;;;;21.30;98.80;;;;;;8400026;28;19963;-73
2023/06/27 11:38:41;;;;;;;;;;;21.40;97.40;;;;;;8405570;28;19989;-72
2023/06/27 11:42:43;;;;;;;;;;;21.50;97.10;;;;;;8449110;27;19924;-74
2023/06/27 11:46:53;;;;;;;;;;;21.50;98.50;;;;;;8447215;27;19923;-73
2023/06/27 11:51:03;;;;;;;;;;;21.50;97.10;;;;;;8432285;28;20241;-73
2023/06/27 11:55:05;;;;;;;;;;;21.50;98.00;;;;;;8427696;28;20319;-71
2023/06/27 11:59:08;;;;;;;;;;;21.60;96.80;;;;;;8428845;28;19932;-74
2023/06/27 12:03:10;;;;;;;;;;;21.60;97.70;;;;;;8434185;28;19970;-72
2023/06/27 12:07:16;;;;;;;;;;;21.60;96.60;;;;;;8441069;27;20024;-73
2023/06/27 12:11:24;;;;;;;;;;;21.60;95.50;;;;;;8426973;28;19928;-73
2023/06/27 12:15:26;;;;;;;;;;;21.50;95.50;;;;;;8426153;28;20423;-73
2023/06/27 12:19:28;;;;;;;;;;;21.60;96.00;;;;;;8434157;28;20361;-73
2023/06/27 12:23:29;;;;;;;;;;;21.60;95.90;;;;;;8430194;28;19946;-72
2023/06/27 12:27:34;;;;;;;;;;;21.60;95.20;;;;;;8408320;28;20011;-71
2023/06/27 12:31:37;;;;;;;;;;;21.60;96.20;;;;;;8429030;28;19928;-72
2023/06/27 12:35:39;;;;;;;;;;;21.70;94.80;;;;;;8426050;28;19975;-73
2023/06/27 12:39:41;;;;;;;;;;;21.80;97.00;;;;;;8425249;28;20490;-73
2023/06/27 12:43:43;;;;;;;;;;;22.00;95.90;;;;;;8424289;28;20290;-73
2023/06/27 12:47:45;;;;;;;;;;;22.10;96.60;;;;;;8426977;28;20019;-72
2023/06/27 12:51:47;;;;;;;;;;;22.10;94.80;;;;;;8425673;28;19962;-73
2023/06/27 12:55:49;;;;;;;;;;;22.10;96.80;;;;;;8433389;28;20054;-73
2023/06/27 12:59:51;;;;;;;;;;;22.10;96.40;;;;;;8420661;28;20026;-73
2023/06/27 13:03:53;;;;;;;;;;;22.10;96.60;;;;;;8424949;28;19932;-72
2023/06/27 13:13:03;;;;;;;;;;;22.10;97.10;;;;;;8425925;28;20296;-74
2023/06/27 13:17:05;;;;;;;;;;;22.00;96.70;;;;;;8428520;28;19924;-73
2023/06/27 13:21:07;;;;;;;;;;;22.10;96.60;;;;;;8429512;28;19938;-73
2023/06/27 13:25:09;;;;;;;;;;;22.10;96.50;;;;;;8423430;28;19981;-73
2023/06/27 13:29:10;;;;;;;;;;;22.20;95.40;;;;;;8424593;28;20027;-73
2023/06/27 13:33:12;;;;;;;;;;;22.20;96.30;;;;;;8426240;28;20011;-72
2023/06/27 13:37:14;;;;;;;;;;;22.30;95.10;;;;;;8424433;28;19932;-72
2023/06/27 13:41:16;;;;;;;;;;;22.40;94.80;;;;;;8423103;28;19924;-74
2023/06/27 13:50:49;;;;;;;;;;;22.60;96.60;;;;;;8422367;28;20393;-73
2023/06/27 13:54:51;;;;;;;;;;;22.70;95.90;;;;;;8427387;28;20010;-74
2023/06/27 13:58:53;;;;;;;;;;;22.70;96.00;;;;;;8423689;28;19963;-73
2023/06/27 14:02:55;;;;;;;;;;;22.70;96.00;;;;;;8420623;28;19935;-73
2023/06/27 14:06:57;;;;;;;;;;;22.60;95.10;;;;;;8423284;28;20272;-73
2023/06/27 14:10:59;;;;;;;;;;;22.50;96.30;;;;;;8426334;28;20295;-73
2023/06/27 14:15:03;;;;;;;;;;;22.50;94.30;;;;;;8425871;28;19963;-72
2023/06/27 14:19:05;;;;;;;;;;;22.50;93.10;;;;;;8424086;28;20394;-72
2023/06/27 14:23:07;;;;;;;;;;;22.50;92.50;;;;;;8424869;28;20360;-72
2023/06/27 14:27:10;;;;;;;;;;;22.40;91.90;;;;;;8420441;28;19924;-72
2023/06/27 14:31:12;;;;;;;;;;;22.30;92.60;;;;;;8422963;28;19932;-72
2023/06/27 14:35:14;;;;;;;;;;;22.10;92.40;;;;;;8425452;28;19923;-72
2023/06/27 14:39:15;;;;;;;;;;;22.10;93.20;;;;;;8442763;27;20065;-72
2023/06/27 14:43:20;;;;;;;;;;;22.00;93.10;;;;;;8429533;28;21354;-73
2023/06/27 14:47:22;;;;;;;;;;;22.10;94.10;;;;;;8416474;28;19932;-71
2023/06/27 14:51:24;;;;;;;;;;;22.10;92.60;;;;;;8419449;28;19924;-71
2023/06/27 14:55:25;;;;;;;;;;;22.30;93.00;;;;;;8425176;28;19928;-71
2023/06/27 14:59:27;;;;;;;;;;;22.30;91.50;;;;;;8431972;28;19932;-72
2023/06/27 15:03:29;;;;;;;;;;;22.30;92.70;;;;;;8422914;28;20018;-73
2023/06/27 15:07:31;;;;;;;;;;;22.30;92.20;;;;;;8429083;28;19966;-72
2023/06/27 15:11:32;;;;;;;;;;;22.40;92.80;;;;;;8430021;27;19928;-72
2023/06/27 15:15:34;;;;;;;;;;;22.40;91.80;;;;;;8427511;28;20041;-72
2023/06/27 15:19:36;;;;;;;;;;;22.30;93.20;;;;;;8446301;27;19932;-72
2023/06/27 15:23:38;;;;;;;;;;;22.20;91.30;;;;;;8426910;28;19924;-72
2023/06/27 15:27:40;;;;;;;;;;;22.10;92.70;;;;;;8427615;28;20012;-72
2023/06/27 15:31:42;;;;;;;;;;;22.00;92.30;;;;;;8430199;28;19928;-73
2023/06/27 15:35:43;;;;;;;;;;;21.90;92.90;;;;;;8428668;28;19927;-72
2023/06/27 15:39:45;;;;;;;;;;;21.90;92.00;;;;;;8425752;28;21295;-73
2023/06/27 15:43:47;;;;;;;;;;;21.80;93.40;;;;;;8427686;28;19970;-73
2023/06/27 15:47:49;;;;;;;;;;;21.80;93.60;;;;;;8426511;28;19985;-73
2023/06/27 15:51:50;;;;;;;;;;;21.80;93.80;;;;;;8418956;28;20548;-73
2023/06/27 15:55:52;;;;;;;;;;;21.80;94.10;;;;;;8410059;28;19971;-72
2023/06/27 15:59:54;;;;;;;;;;;21.80;94.10;;;;;;8429879;28;19946;-73
2023/06/27 16:03:56;;;;;;;;;;;21.80;94.40;;;;;;8426859;28;19932;-73
2023/06/27 16:07:57;;;;;;;;;;;21.80;94.40;;;;;;8422178;28;19928;-74
2023/06/27 16:11:59;;;;;;;;;;;21.70;94.90;;;;;;8414611;28;20394;-74
2023/06/27 16:16:01;;;;;;;;;;;21.70;95.20;;;;;;8421954;28;19924;-74
2023/06/27 16:20:03;;;;;;;;;;;21.60;95.30;;;;;;8428251;27;19928;-74
2023/06/27 16:24:05;;;;;;;;;;;21.60;95.40;;;;;;8413452;28;19947;-73
2023/06/27 16:28:07;;;;;;;;;;;21.70;95.50;;;;;;8433863;28;19927;-73
2023/06/27 16:32:08;;;;;;;;;;;21.60;95.30;;;;;;8427072;27;19924;-73
2023/06/27 16:36:10;;;;;;;;;;;21.60;94.90;;;;;;8418559;28;19927;-73
2023/06/27 16:40:13;;;;;;;;;;;21.60;93.40;;;;;;8412540;28;19927;-72
2023/06/27 16:44:15;;;;;;;;;;;21.50;92.30;;;;;;8416990;28;20371;-73
2023/06/27 16:48:16;;;;;;;;;;;21.40;92.60;;;;;;8428894;28;19932;-73
2023/06/27 16:52:18;;;;;;;;;;;21.40;92.90;;;;;;8424749;28;19929;-72
2023/06/27 17:11:30;;;;;;;;;;;21.20;93.20;;;;;;8424755;28;19935;-73
2023/06/27 17:15:31;;;;;;;;;;;21.20;93.70;;;;;;8428505;28;20283;-72
2023/06/27 17:19:33;;;;;;;;;;;21.10;93.70;;;;;;8425440;28;19928;-73
2023/06/27 17:23:35;;;;;;;;;;;21.10;93.30;;;;;;8425047;28;19946;-74
2023/06/27 17:27:37;;;;;;;;;;;21.10;94.00;;;;;;8427567;28;19939;-73
2023/06/27 17:31:39;;;;;;;;;;;21.00;94.00;;;;;;8442889;27;19928;-73
2023/06/27 17:35:41;;;;;;;;;;;21.00;93.80;;;;;;8425388;28;19924;-74
2023/06/27 17:39:43;;;;;;;;;;;21.00;94.00;;;;;;8425004;28;19954;-73
2023/06/27 17:43:44;;;;;;;;;;;21.00;93.80;;;;;;8399505;28;19928;-73
2023/06/27 17:47:46;;;;;;;;;;;21.00;93.90;;;;;;8424472;28;19935;-74
2023/06/27 17:51:48;;;;;;;;;;;20.90;94.10;;;;;;8425147;28;19924;-73
2023/06/27 17:55:50;;;;;;;;;;;20.90;94.20;;;;;;8422633;28;19936;-74
2023/06/27 17:59:51;;;;;;;;;;;20.90;94.40;;;;;;8430162;28;20291;-73
2023/06/27 18:03:53;;;;;;;;;;;20.90;94.50;;;;;;8425768;28;19940;-73
2023/06/27 18:07:55;;;;;;;;;;;20.90;94.50;;;;;;8438202;27;19931;-73
2023/06/27 18:11:57;;;;;;;;;;;20.90;94.20;;;;;;8423971;28;19954;-73
2023/06/27 18:15:58;;;;;;;;;;;20.90;94.40;;;;;;8422478;28;19943;-75
2023/06/27 18:20:00;;;;;;;;;;;20.80;94.50;;;;;;8437221;27;19924;-74
2023/06/27 18:24:02;;;;;;;;;;;20.80;94.50;;;;;;8427496;28;19981;-73
2023/06/27 18:28:04;;;;;;;;;;;20.70;94.60;;;;;;8427404;28;19924;-73
2023/06/27 18:32:06;;;;;;;;;;;20.70;94.70;;;;;;8428067;28;19936;-74
2023/06/27 18:36:08;;;;;;;;;;;20.60;94.60;;;;;;8441017;27;20444;-74
2023/06/27 18:40:10;;;;;;;;;;;20.60;94.70;;;;;;8439506;27;20445;-74
2023/06/27 18:44:12;;;;;;;;;;;20.50;94.70;;;;;;8440352;28;20318;-74
2023/06/27 18:48:14;;;;;;;;;;;20.50;94.60;;;;;;8436748;28;19927;-74
2023/06/27 18:52:17;;;;;;;;;;;20.40;94.80;;;;;;8437219;27;19925;-74
2023/06/27 18:56:18;;;;;;;;;;;20.40;94.80;;;;;;8431070;28;20288;-74
2023/06/27 19:00:20;;;;;;;;;;;20.40;94.80;;;;;;8436218;28;19924;-74
2023/06/27 19:04:22;;;;;;;;;;;20.40;94.70;;;;;;8434889;27;19924;-74
2023/06/27 19:08:24;;;;;;;;;;;20.40;94.70;;;;;;8432937;27;19928;-74
2023/06/27 19:12:25;;;;;;;;;;;20.40;94.70;;;;;;8433668;28;21363;-74
2023/06/27 19:16:27;;;;;;;;;;;20.40;94.80;;;;;;8431321;27;19924;-74
2023/06/27 19:20:29;;;;;;;;;;;20.30;94.80;;;;;;8435079;27;20623;-74
2023/06/27 19:24:30;;;;;;;;;;;20.30;94.90;;;;;;8431581;27;19928;-74
2023/06/27 19:28:32;;;;;;;;;;;20.30;95.00;;;;;;8439483;27;20280;-74
2023/06/27 19:32:34;;;;;;;;;;;20.20;95.10;;;;;;8443336;27;21231;-74
2023/06/27 19:36:35;;;;;;;;;;;20.20;95.10;;;;;;8444855;27;19931;-74
2023/06/27 19:40:37;;;;;;;;;;;20.20;95.00;;;;;;8447691;27;20010;-74
2023/06/27 19:44:39;;;;;;;;;;;20.20;95.10;;;;;;8432406;27;20031;-74
2023/06/27 19:48:40;;;;;;;;;;;20.20;95.20;;;;;;8447509;27;20432;-74
2023/06/27 19:52:42;;;;;;;;;;;20.20;95.40;;;;;;8426598;27;19978;-74
2023/06/27 19:56:44;;;;;;;;;;;20.20;95.50;;;;;;8428152;28;20037;-74
2023/06/27 20:00:45;;;;;;;;;;;20.10;95.40;;;;;;8431734;28;19928;-74
2023/06/27 20:04:47;;;;;;;;;;;20.10;95.40;;;;;;8415801;28;19928;-74
2023/06/27 20:08:49;;;;;;;;;;;20.10;95.40;;;;;;8428916;27;20429;-74
2023/06/27 20:12:51;;;;;;;;;;;20.10;95.70;;;;;;8429446;28;20389;-74
2023/06/27 20:16:53;;;;;;;;;;;20.10;96.10;;;;;;8430253;27;19936;-74
2023/06/27 20:20:54;;;;;;;;;;;20.10;96.90;;;;;;8426310;28;19924;-74
2023/06/27 20:24:57;;;;;;;;;;;20.00;96.40;;;;;;8430758;27;19977;-74
2023/06/27 20:28:59;;;;;;;;;;;19.90;96.60;;;;;;8429329;28;20004;-74
2023/06/27 20:33:00;;;;;;;;;;;19.90;97.00;;;;;;8428929;28;20004;-73
2023/06/27 20:37:02;;;;;;;;;;;19.90;96.80;;;;;;8424966;28;20359;-74
2023/06/27 20:41:04;;;;;;;;;;;19.90;97.10;;;;;;8427834;27;19928;-74
2023/06/27 20:45:06;;;;;;;;;;;19.80;97.80;;;;;;8421392;28;19928;-73
2023/06/27 20:49:08;;;;;;;;;;;19.70;98.20;;;;;;8429434;27;19931;-74
2023/06/27 20:53:09;;;;;;;;;;;19.70;98.10;;;;;;8427083;28;19936;-74
2023/06/27 20:57:11;;;;;;;;;;;19.60;98.40;;;;;;8430296;27;19936;-74
2023/06/27 21:16:22;;;;;;;;;;;19.30;99.50;;;;;;8445914;27;20144;-74
2023/06/27 21:20:24;;;;;;;;;;;19.20;99.80;;;;;;8455189;28;20307;-74
2023/06/27 21:24:25;;;;;;;;;;;19.20;99.50;;;;;;8425508;28;20309;-73
2023/06/27 21:28:28;;;;;;;;;;;19.20;99.10;;;;;;8441578;28;19935;-73
2023/06/27 21:42:36;;;;;;;;;;;19.10;99.90;;;;;;8415501;28;19927;-73
2023/06/27 21:46:38;;;;;;;;;;;19.00;99.70;;;;;;8408151;28;19933;-74
2023/06/27 21:50:39;;;;;;;;;;;19.00;99.60;;;;;;8439598;27;19932;-73
2023/06/27 21:54:41;;;;;;;;;;;18.90;98.70;;;;;;8430933;28;19932;-74
2023/06/27 21:58:43;;;;;;;;;;;18.90;99.30;;;;;;8423517;28;20467;-73
2023/06/27 22:02:47;;;;;;;;;;;18.80;99.90;;;;;;8407512;28;20329;-73
2023/06/27 22:06:49;;;;;;;;;;;18.80;99.90;;;;;;8421645;28;19925;-73
2023/06/27 22:10:51;;;;;;;;;;;18.70;99.90;;;;;;8408575;28;20261;-73
2023/06/27 22:14:53;;;;;;;;;;;18.70;99.90;;;;;;8420586;28;19928;-74
2023/06/27 22:18:54;;;;;;;;;;;18.70;99.90;;;;;;8421070;28;20367;-73
2023/06/27 22:22:56;;;;;;;;;;;18.60;99.90;;;;;;8417769;28;19943;-73
2023/06/27 22:26:58;;;;;;;;;;;18.60;99.90;;;;;;8412612;28;19932;-73
2023/06/27 22:30:59;;;;;;;;;;;18.60;99.90;;;;;;8434928;28;19928;-73
2023/06/27 22:35:01;;;;;;;;;;;18.60;99.90;;;;;;8414403;28;20256;-73
2023/06/27 22:39:03;;;;;;;;;;;18.60;99.90;;;;;;8438584;28;19932;-73
2023/06/27 22:43:05;;;;;;;;;;;18.50;99.90;;;;;;8412003;28;20273;-73
2023/06/27 22:47:06;;;;;;;;;;;18.50;99.90;;;;;;8407517;28;20015;-73
2023/06/27 22:51:08;;;;;;;;;;;18.40;99.90;;;;;;8413682;28;19932;-73
2023/06/27 22:55:10;;;;;;;;;;;18.30;99.90;;;;;;8401136;28;19932;-73
2023/06/27 22:59:12;;;;;;;;;;;18.30;99.90;;;;;;8398340;28;20002;-74
2023/06/27 23:03:13;;;;;;;;;;;18.30;99.90;;;;;;8433369;28;19939;-74
2023/06/27 23:07:16;;;;;;;;;;;18.20;99.90;;;;;;8422626;28;20002;-73
2023/06/27 23:11:18;;;;;;;;;;;18.20;99.90;;;;;;8409273;28;20010;-73
2023/06/27 23:15:20;;;;;;;;;;;18.20;99.90;;;;;;8410292;28;19955;-73
2023/06/27 23:19:22;;;;;;;;;;;18.10;99.90;;;;;;8424285;28;20273;-73
2023/06/27 23:23:24;;;;;;;;;;;18.10;99.90;;;;;;8420777;28;19994;-74
2023/06/27 23:27:26;;;;;;;;;;;18.10;99.90;;;;;;8428713;28;20346;-73
2023/06/27 23:31:34;;;;;;;;;;;18.00;99.90;;;;;;8432878;27;19932;-73
2023/06/27 23:35:36;;;;;;;;;;;18.00;99.90;;;;;;8415151;28;19971;-73
2023/06/27 23:39:38;;;;;;;;;;;18.00;99.90;;;;;;8424920;28;19931;-73
2023/06/27 23:43:39;;;;;;;;;;;18.00;99.90;;;;;;8419831;28;19923;-73
2023/06/27 23:47:41;;;;;;;;;;;18.00;99.90;;;;;;8414273;28;19964;-73
2023/06/27 23:51:43;;;;;;;;;;;18.00;99.90;;;;;;8419015;28;19924;-73
2023/06/27 23:55:45;;;;;;;;;;;17.90;99.90;;;;;;8415548;28;20332;-74
2023/06/27 23:59:46;;;;;;;;;;;17.90;99.90;;;;;;8402208;28;19924;-73
